Time;durP1;ratioP1;P1;durP2;ratioP2;P2;SDS_P1;SDS_P2;PMS_P1;PMS_P2;Temp;Humidity;BMP_temperature;BMP_pressure;BME280_temperature;BME280_humidity;BME280_pressure;Samples;Min_cycle;Max_cycle;Signal;HPM_P1;HPM_P2
2022/07/29 00:00:16;;;;;;;3.90;3.65;;;;;;;24.87;65.51;99429.97;5051683;28;20203;-59
2022/07/29 00:02:43;;;;;;;4.43;3.58;;;;;;;24.84;65.99;99430.22;5051635;28;20625;-60
2022/07/29 00:05:13;;;;;;;3.83;3.60;;;;;;;24.76;66.51;99430.06;5052046;28;20197;-58
2022/07/29 00:07:40;;;;;;;4.32;4.00;;;;;;;24.72;66.98;99428.69;5051885;28;20727;-58
2022/07/29 00:10:07;;;;;;;3.80;3.60;;;;;;;24.67;67.39;99434.38;5052066;28;20203;-57
2022/07/29 00:12:34;;;;;;;4.22;3.88;;;;;;;24.73;67.74;99425.88;5051622;28;20590;-58
2022/07/29 00:15:03;;;;;;;5.20;3.78;;;;;;;24.73;67.46;99427.69;5051003;28;20583;-58
2022/07/29 00:17:30;;;;;;;4.60;3.83;;;;;;;24.71;67.70;99429.66;5050048;28;20604;-58
2022/07/29 00:19:57;;;;;;;4.35;4.05;;;;;;;24.69;68.00;99423.63;5051402;28;20204;-57
2022/07/29 00:22:23;;;;;;;4.07;3.72;;;;;;;24.67;68.49;99430.88;5051521;28;20704;-57
2022/07/29 00:24:50;;;;;;;4.35;3.97;;;;;;;24.59;69.20;99432.41;5051537;28;20605;-57
2022/07/29 00:27:18;;;;;;;4.78;4.30;;;;;;;24.57;69.46;99422.91;5051441;28;20197;-60
2022/07/29 00:29:45;;;;;;;4.15;3.85;;;;;;;24.59;69.48;99421.81;5051063;28;20192;-58
2022/07/29 00:32:13;;;;;;;5.00;4.22;;;;;;;24.56;69.93;99426.53;5051345;28;20207;-58
2022/07/29 00:37:24;;;;;;;4.70;3.75;;;;;;;24.48;70.71;99427.22;5051195;28;20605;-57
2022/07/29 00:39:51;;;;;;;6.10;4.65;;;;;;;24.57;70.24;99425.56;5051051;28;20208;-56
2022/07/29 00:42:18;;;;;;;4.63;4.32;;;;;;;24.61;70.32;99430.44;5050984;28;20192;-56
2022/07/29 00:44:45;;;;;;;7.95;4.47;;;;;;;24.60;70.47;99422.66;5051152;28;20223;-58
2022/07/29 00:47:13;;;;;;;4.55;4.05;;;;;;;24.58;70.46;99417.47;5051272;28;20201;-59
2022/07/29 00:49:41;;;;;;;5.45;4.80;;;;;;;24.67;70.74;99429.06;5051032;28;20220;-59
2022/07/29 00:52:09;;;;;;;4.80;4.50;;;;;;;24.45;71.19;99414.22;5051031;28;20196;-59
2022/07/29 00:54:38;;;;;;;5.75;4.65;;;;;;;24.51;71.54;99431.38;5051318;28;20208;-59
2022/07/29 00:57:07;;;;;;;6.80;4.93;;;;;;;24.47;72.00;99427.34;5051062;28;20662;-59
2022/07/29 00:59:33;;;;;;;4.65;4.22;;;;;;;24.45;72.48;99427.47;5050598;28;20211;-58
2022/07/29 01:02:01;;;;;;;6.00;5.32;;;;;;;24.45;73.17;99422.16;5050813;28;20287;-58
2022/07/29 01:04:30;;;;;;;6.05;5.35;;;;;;;24.61;72.54;99424.28;5050635;28;20203;-58
2022/07/29 01:06:57;;;;;;;6.05;5.50;;;;;;;24.55;73.09;99424.84;5050590;28;20232;-57
2022/07/29 01:09:25;;;;;;;5.07;4.78;;;;;;;24.59;73.42;99427.09;5050526;28;20664;-58
2022/07/29 01:11:52;;;;;;;7.20;5.78;;;;;;;24.43;73.86;99424.09;5050453;28;20197;-57
2022/07/29 01:14:20;;;;;;;5.63;5.22;;;;;;;24.38;75.08;99428.16;5050185;28;20244;-58
2022/07/29 01:16:52;;;;;;;6.07;5.57;;;;;;;24.36;75.32;99430.09;5050408;28;20196;-57
2022/07/29 01:19:46;;;;;;;6.15;5.75;;;;;;;24.34;75.88;99432.88;5050281;28;20231;-58
2022/07/29 01:22:38;;;;;;;6.07;5.63;;;;;;;24.43;75.97;99432.06;5050360;28;20208;-58
2022/07/29 01:25:31;;;;;;;10.32;5.40;;;;;;;24.42;75.84;99429.53;5050173;28;20231;-58
2022/07/29 01:28:24;;;;;;;6.40;5.78;;;;;;;24.43;75.89;99425.91;5050039;28;20188;-57
2022/07/29 01:30:54;;;;;;;5.75;5.28;;;;;;;24.48;75.75;99426.38;5050021;28;20207;-57
2022/07/29 01:36:14;;;;;;;6.47;5.97;;;;;;;24.36;76.41;99430.09;5050262;28;20721;-57
2022/07/29 01:38:43;;;;;;;6.82;6.20;;;;;;;24.37;76.47;99429.97;5050629;28;20601;-57
2022/07/29 01:41:15;;;;;;;7.57;6.88;;;;;;;24.35;76.78;99418.66;5050161;28;20200;-58
2022/07/29 01:43:59;;;;;;;7.88;7.03;;;;;;;24.35;77.11;99417.81;5049686;28;20208;-58
2022/07/29 01:46:32;;;;;;;7.35;6.75;;;;;;;24.41;76.82;99422.56;5049885;28;20212;-59
2022/07/29 01:49:05;;;;;;;6.82;6.43;;;;;;;24.38;76.69;99422.84;5049893;28;20628;-59
2022/07/29 01:51:36;;;;;;;7.93;7.30;;;;;;;24.32;76.76;99413.59;5050022;28;20208;-59
2022/07/29 01:54:13;;;;;;;8.10;7.30;;;;;;;24.41;76.27;99422.56;5049887;28;20204;-58
2022/07/29 01:56:43;;;;;;;8.68;7.93;;;;;;;24.37;76.38;99419.34;5049961;28;21117;-58
2022/07/29 01:59:11;;;;;;;8.40;7.72;;;;;;;24.32;76.48;99415.41;5049615;28;20231;-59
2022/07/29 02:01:42;;;;;;;9.32;7.80;;;;;;;24.28;76.79;99412.19;5049655;28;20200;-60
2022/07/29 02:04:12;;;;;;;10.07;7.50;;;;;;;24.20;77.76;99411.97;5049912;28;20201;-59
2022/07/29 02:06:41;;;;;;;8.63;7.47;;;;;;;24.12;78.20;99414.47;5049703;28;20720;-59
2022/07/29 02:09:11;;;;;;;8.05;7.03;;;;;;;24.03;79.01;99412.59;5049595;28;20611;-57
2022/07/29 02:11:39;;;;;;;8.45;7.43;;;;;;;24.00;79.17;99413.69;5049364;28;20207;-61
2022/07/29 02:14:08;;;;;;;9.48;7.90;;;;;;;23.95;79.93;99415.06;5049291;28;20247;-60
2022/07/29 02:16:38;;;;;;;13.07;7.38;;;;;;;23.88;80.42;99412.94;5049710;28;20210;-59
2022/07/29 02:19:08;;;;;;;8.68;7.03;;;;;;;23.86;80.88;99416.69;5049613;28;20224;-58
2022/07/29 02:21:36;;;;;;;10.45;6.75;;;;;;;23.76;81.64;99406.03;5055751;28;20231;-59
2022/07/29 02:24:05;;;;;;;6.35;5.85;;;;;;;23.58;82.22;99386.41;5059194;28;20693;-59
2022/07/29 02:26:34;;;;;;;7.07;6.45;;;;;;;23.60;83.01;99405.63;5058052;28;20203;-59
2022/07/29 02:29:03;;;;;;;7.43;6.43;;;;;;;23.55;83.52;99404.34;5057253;28;20189;-59
2022/07/29 02:31:34;;;;;;;6.72;6.13;;;;;;;23.56;82.96;99404.22;5058664;28;20297;-58
2022/07/29 02:34:04;;;;;;;7.40;6.80;;;;;;;23.47;83.35;99391.72;5059206;28;20249;-58
2022/07/29 02:36:33;;;;;;;11.43;6.78;;;;;;;23.50;83.44;99404.72;5057783;28;20192;-58
2022/07/29 02:39:03;;;;;;;7.38;6.68;;;;;;;23.42;83.46;99404.50;5056746;28;20225;-58
2022/07/29 02:41:34;;;;;;;12.88;6.55;;;;;;;23.25;83.72;99383.91;5059782;28;20239;-58
2022/07/29 02:44:07;;;;;;;7.93;6.32;;;;;;;23.32;84.21;99398.28;5057035;28;20211;-58
2022/07/29 02:46:37;;;;;;;7.10;6.40;;;;;;;23.26;84.10;99385.53;5057831;28;20215;-59
2022/07/29 02:49:10;;;;;;;6.75;6.15;;;;;;;23.26;84.03;99393.50;5059324;28;20189;-59
2022/07/29 02:51:44;;;;;;;6.65;6.03;;;;;;;23.28;83.01;99400.34;5058704;28;20188;-57
2022/07/29 02:54:12;;;;;;;10.43;6.15;;;;;;;23.22;82.90;99400.03;5055599;28;20200;-59
2022/07/29 02:56:43;;;;;;;7.70;5.97;;;;;;;23.27;82.03;99408.41;5059044;28;20204;-60
2022/07/29 02:59:12;;;;;;;8.52;5.60;;;;;;;23.21;81.63;99406.28;5059347;28;20617;-59
2022/07/29 03:01:43;;;;;;;8.20;5.97;;;;;;;23.20;81.58;99401.97;5061143;28;20196;-59
2022/07/29 03:04:13;;;;;;;6.20;5.63;;;;;;;23.25;81.26;99402.44;5059360;28;20326;-58
2022/07/29 03:06:43;;;;;;;7.15;6.15;;;;;;;23.21;81.60;99403.66;5060555;28;20211;-58
2022/07/29 03:09:11;;;;;;;6.68;6.00;;;;;;;23.13;81.58;99418.38;5058001;28;20195;-58
2022/07/29 03:11:39;;;;;;;6.78;5.68;;;;;;;23.04;81.95;99416.44;5037259;28;20236;-58
2022/07/29 03:14:07;;;;;;;8.05;6.30;;;;;;;22.95;82.45;99409.25;5032089;28;20311;-60
2022/07/29 03:16:36;;;;;;;9.30;6.60;;;;;;;22.92;82.37;99403.38;5032051;28;20591;-60
2022/07/29 03:19:05;;;;;;;5.97;5.53;;;;;;;22.96;81.53;99410.09;5031911;28;20670;-60
2022/07/29 03:21:32;;;;;;;8.73;6.10;;;;;;;22.95;81.47;99414.56;5032136;28;20612;-58
2022/07/29 03:24:00;;;;;;;7.07;6.40;;;;;;;22.97;81.61;99414.44;5048657;28;20225;-59
2022/07/29 03:26:27;;;;;;;10.93;5.90;;;;;;;22.99;80.80;99421.28;5051855;28;20235;-60
2022/07/29 03:28:54;;;;;;;7.90;6.57;;;;;;;22.92;80.77;99428.03;5050823;28;20228;-59
2022/07/29 03:31:20;;;;;;;5.95;5.45;;;;;;;22.95;79.79;99425.16;5051961;28;20220;-59
2022/07/29 03:33:47;;;;;;;8.43;5.78;;;;;;;22.99;79.20;99426.59;5045161;28;20301;-58
2022/07/29 03:36:14;;;;;;;10.10;5.95;;;;;;;22.98;78.95;99435.50;5031994;28;20221;-59
2022/07/29 03:38:45;;;;;;;10.95;5.80;;;;;;;22.99;78.97;99431.03;5060744;28;20223;-59
2022/07/29 03:41:15;;;;;;;6.20;5.60;;;;;;;23.05;78.69;99434.00;5060348;28;20707;-58
2022/07/29 03:43:43;;;;;;;7.20;6.43;;;;;;;23.10;78.58;99434.50;5059522;28;20231;-58
2022/07/29 03:46:12;;;;;;;9.40;6.72;;;;;;;23.10;78.55;99431.84;5060019;28;20731;-59
2022/07/29 03:48:46;;;;;;;6.10;5.60;;;;;;;23.16;77.84;99425.19;5054990;28;20270;-60
2022/07/29 03:51:13;;;;;;;6.47;5.95;;;;;;;23.33;76.46;99435.25;5058532;28;20221;-58
2022/07/29 03:53:40;;;;;;;5.97;5.47;;;;;;;23.49;74.80;99434.81;5060161;28;20240;-59
2022/07/29 03:56:09;;;;;;;10.18;5.82;;;;;;;23.57;73.66;99437.72;5052649;28;20302;-59
2022/07/29 03:58:38;;;;;;;6.03;5.63;;;;;;;23.75;71.91;99419.41;5048480;28;20239;-59
2022/07/29 04:01:05;;;;;;;7.90;6.35;;;;;;;24.58;68.66;99441.34;5048033;28;20220;-59
2022/07/29 04:03:32;;;;;;;7.15;6.38;;;;;;;25.40;65.66;99445.53;5046812;28;20232;-60
2022/07/29 04:06:02;;;;;;;7.63;6.90;;;;;;;26.27;62.42;99451.59;5050210;28;20228;-59
2022/07/29 04:08:29;;;;;;;10.80;6.97;;;;;;;27.10;59.17;99440.00;5048820;28;20216;-60
2022/07/29 04:10:56;;;;;;;9.48;6.80;;;;;;;28.10;55.65;99458.38;5048408;28;20220;-59
2022/07/29 04:13:23;;;;;;;7.18;6.28;;;;;;;28.99;52.33;99458.00;5048142;28;20244;-60
2022/07/29 04:15:51;;;;;;;9.70;6.35;;;;;;;29.66;50.02;99469.50;5051876;28;20692;-60
2022/07/29 04:18:18;;;;;;;13.50;7.20;;;;;;;30.52;47.65;99475.06;5049600;28;20217;-59
2022/07/29 04:20:44;;;;;;;7.05;6.35;;;;;;;31.45;45.17;99472.44;5050888;28;20223;-60
2022/07/29 04:23:12;;;;;;;7.63;6.93;;;;;;;32.25;43.29;99481.69;5050564;28;20231;-58
2022/07/29 04:25:39;;;;;;;7.57;6.13;;;;;;;33.17;41.42;99480.25;5055038;28;20266;-59
2022/07/29 04:28:07;;;;;;;6.43;5.93;;;;;;;34.03;39.38;99480.25;5070263;28;20304;-61
2022/07/29 04:30:35;;;;;;;10.52;6.65;;;;;;;34.48;38.23;99474.38;5069756;28;20744;-60
2022/07/29 04:33:05;;;;;;;8.13;7.50;;;;;;;34.13;38.80;99462.72;5071232;28;20679;-60
2022/07/29 04:35:35;;;;;;;9.85;7.82;;;;;;;34.13;38.81;99475.34;5071021;28;20199;-58
2022/07/29 04:38:02;;;;;;;12.13;7.30;;;;;;;34.45;37.96;99482.00;5070769;28;20196;-60
2022/07/29 04:40:29;;;;;;;7.70;6.78;;;;;;;34.70;37.19;99463.47;5070881;28;20670;-61
2022/07/29 04:42:56;;;;;;;7.38;6.65;;;;;;;35.04;36.39;99481.47;5070894;28;20207;-61
2022/07/29 04:45:23;;;;;;;6.95;6.32;;;;;;;35.33;35.85;99483.88;5070540;28;20198;-60
2022/07/29 04:47:50;;;;;;;10.35;6.85;;;;;;;35.94;34.92;99486.44;5069686;28;20782;-62
2022/07/29 04:50:18;;;;;;;6.57;5.90;;;;;;;36.13;34.19;99498.28;5069577;28;20192;-61
2022/07/29 04:52:45;;;;;;;7.03;6.43;;;;;;;36.09;34.27;99499.75;5069479;28;20196;-61
2022/07/29 04:55:12;;;;;;;7.72;6.78;;;;;;;36.16;34.17;99504.09;5069403;28;20203;-61
2022/07/29 04:57:39;;;;;;;6.30;5.65;;;;;;;36.61;33.33;99505.09;5069969;28;20206;-61
2022/07/29 05:00:08;;;;;;;5.90;5.40;;;;;;;37.26;31.95;99492.38;5070370;28;20229;-62
2022/07/29 05:02:35;;;;;;;4.97;4.72;;;;;;;37.79;31.03;99506.44;5069826;28;20293;-61
2022/07/29 05:05:02;;;;;;;6.18;5.60;;;;;;;38.04;31.05;99506.41;5070686;28;20325;-61
2022/07/29 05:07:30;;;;;;;6.70;6.13;;;;;;;38.24;30.63;99503.56;5070433;28;20318;-61
2022/07/29 05:09:57;;;;;;;8.35;6.10;;;;;;;38.65;30.69;99507.53;5070347;28;20202;-61
2022/07/29 05:12:24;;;;;;;12.15;6.53;;;;;;;38.74;30.36;99514.31;5070300;28;20282;-62
2022/07/29 05:14:51;;;;;;;7.80;6.55;;;;;;;38.46;31.33;99512.94;5070221;28;20229;-61
2022/07/29 05:17:18;;;;;;;7.20;6.57;;;;;;;38.54;30.56;99506.41;5070108;28;20201;-61
2022/07/29 05:19:45;;;;;;;8.50;6.30;;;;;;;37.50;32.24;99519.72;5069511;28;20306;-61
2022/07/29 05:22:12;;;;;;;9.05;6.90;;;;;;;37.20;32.58;99511.38;5070136;28;20282;-61
2022/07/29 05:24:40;;;;;;;6.88;6.30;;;;;;;37.50;32.17;99506.19;5069947;28;20628;-61
2022/07/29 05:27:08;;;;;;;7.20;6.50;;;;;;;38.00;31.00;99510.63;5069954;28;20196;-61
2022/07/29 05:29:34;;;;;;;11.52;6.72;;;;;;;37.79;31.76;99502.88;5069986;28;20294;-62
2022/07/29 05:32:01;;;;;;;8.68;6.95;;;;;;;38.22;30.75;99512.97;5070203;28;20203;-62
2022/07/29 05:34:28;;;;;;;8.13;7.43;;;;;;;38.40;30.79;99507.56;5069872;28;20192;-61
2022/07/29 05:36:55;;;;;;;6.97;6.35;;;;;;;38.38;30.30;99517.78;5069454;28;20195;-62
2022/07/29 05:39:22;;;;;;;8.52;6.75;;;;;;;38.27;30.76;99510.41;5061079;28;20211;-61
2022/07/29 05:41:51;;;;;;;7.60;7.13;;;;;;;38.60;29.98;99515.53;5059468;28;20195;-61
2022/07/29 05:44:18;;;;;;;7.93;6.40;;;;;;;38.97;30.07;99519.06;5058522;28;20192;-61
2022/07/29 05:46:44;;;;;;;7.07;6.50;;;;;;;38.66;30.22;99518.16;5058123;28;20210;-61
2022/07/29 05:49:11;;;;;;;7.78;7.07;;;;;;;38.59;30.21;99520.13;5060717;28;20647;-61
2022/07/29 05:51:38;;;;;;;10.35;9.35;;;;;;;39.29;29.03;99531.38;5059364;28;20202;-61
2022/07/29 05:54:05;;;;;;;9.43;6.78;;;;;;;39.36;29.34;99532.13;5058398;28;20202;-61
2022/07/29 05:56:32;;;;;;;7.35;6.85;;;;;;;39.79;28.94;99541.97;5055952;28;20199;-61
2022/07/29 05:59:01;;;;;;;7.32;6.72;;;;;;;39.76;29.04;99548.69;5058840;28;20215;-61
2022/07/29 06:01:28;;;;;;;6.40;6.03;;;;;;;40.44;27.95;99539.25;5059960;28;20210;-61
2022/07/29 06:03:55;;;;;;;8.38;7.03;;;;;;;40.55;27.58;99547.38;5058285;28;20196;-61
2022/07/29 06:06:22;;;;;;;6.93;6.38;;;;;;;39.67;28.70;99539.22;5066123;28;20206;-61
2022/07/29 06:08:49;;;;;;;7.15;6.45;;;;;;;39.06;29.45;99514.97;5069598;28;20195;-61
2022/07/29 06:11:16;;;;;;;10.43;9.48;;;;;;;39.48;29.29;99530.31;5069497;28;20234;-61
2022/07/29 06:13:43;;;;;;;7.50;7.00;;;;;;;39.42;29.38;99531.22;5069166;28;20796;-61
2022/07/29 06:16:11;;;;;;;7.90;7.40;;;;;;;39.64;29.02;99533.41;5069732;28;20195;-61
2022/07/29 06:18:38;;;;;;;7.53;6.97;;;;;;;39.83;28.98;99543.16;5069432;28;20256;-60
2022/07/29 06:21:10;;;;;;;7.57;7.07;;;;;;;39.34;29.61;99542.41;5069176;28;20215;-60
2022/07/29 06:23:37;;;;;;;8.43;7.82;;;;;;;39.39;29.80;99530.84;5069414;28;20337;-60
2022/07/29 06:26:04;;;;;;;8.73;7.93;;;;;;;39.41;29.48;99529.56;5069268;28;20583;-61
2022/07/29 06:28:32;;;;;;;8.52;7.78;;;;;;;38.78;30.22;99524.50;5069526;28;20693;-61
2022/07/29 06:30:58;;;;;;;8.60;7.85;;;;;;;38.83;30.56;99518.38;5072089;28;20199;-62
2022/07/29 06:33:27;;;;;;;8.25;7.75;;;;;;;38.98;30.48;99535.13;5073601;28;20646;-61
2022/07/29 06:35:54;;;;;;;11.30;8.65;;;;;;;39.46;29.83;99537.03;5073564;28;20300;-61
2022/07/29 06:38:21;;;;;;;8.50;7.72;;;;;;;38.20;31.26;99513.19;5073891;28;20286;-60
2022/07/29 06:41:04;;;;;;;8.82;8.07;;;;;;;37.72;32.01;99527.31;5073206;28;20223;-62
2022/07/29 06:43:35;;;;;;;8.93;8.15;;;;;;;37.73;32.06;99517.28;5072003;28;20206;-60
2022/07/29 06:46:04;;;;;;;8.98;7.97;;;;;;;38.31;31.03;99519.75;5054802;28;20207;-61
2022/07/29 06:48:33;;;;;;;8.48;7.97;;;;;;;38.46;31.07;99528.38;5052751;28;20203;-61
2022/07/29 06:51:00;;;;;;;8.93;8.00;;;;;;;38.51;30.91;99528.50;5052907;28;20211;-61
2022/07/29 06:53:27;;;;;;;8.70;8.00;;;;;;;38.25;31.08;99517.94;5052930;28;20416;-60
2022/07/29 06:55:54;;;;;;;8.63;8.23;;;;;;;37.73;32.49;99517.28;5053170;28;20199;-60
2022/07/29 06:58:21;;;;;;;8.57;7.90;;;;;;;37.06;32.79;99516.81;5053018;28;20198;-61
2022/07/29 07:00:49;;;;;;;8.95;8.15;;;;;;;36.81;33.35;99515.03;5052870;28;20632;-60
2022/07/29 07:03:16;;;;;;;9.27;8.43;;;;;;;36.46;33.63;99493.69;5052889;28;20201;-60
2022/07/29 07:05:45;;;;;;;8.80;8.05;;;;;;;36.77;33.35;99511.94;5053131;28;20247;-60
2022/07/29 07:08:13;;;;;;;9.07;7.70;;;;;;;36.97;32.96;99512.69;5052260;28;20690;-62
2022/07/29 07:10:40;;;;;;;9.65;8.75;;;;;;;36.97;32.98;99509.16;5052329;28;20203;-62
2022/07/29 07:13:08;;;;;;;8.38;7.75;;;;;;;37.17;32.78;99511.78;5052419;28;20263;-60
2022/07/29 07:15:36;;;;;;;9.25;8.65;;;;;;;36.70;33.81;99490.31;5052727;28;20703;-60
2022/07/29 07:18:03;;;;;;;10.52;9.65;;;;;;;35.82;34.84;99499.75;5052499;28;20203;-61
2022/07/29 07:20:30;;;;;;;9.77;8.82;;;;;;;34.92;35.93;99498.25;5052715;28;20632;-60
2022/07/29 07:22:58;;;;;;;8.95;8.15;;;;;;;35.32;35.86;99503.00;5049279;28;20227;-60
2022/07/29 07:25:26;;;;;;;8.57;7.95;;;;;;;36.09;34.56;99484.38;5051550;28;20220;-62
2022/07/29 07:27:53;;;;;;;8.88;8.20;;;;;;;36.95;33.53;99505.81;5051751;28;20295;-60
2022/07/29 07:30:19;;;;;;;9.05;8.23;;;;;;;36.80;32.79;99492.56;5051132;28;20595;-61
2022/07/29 07:32:46;;;;;;;8.65;7.78;;;;;;;37.02;33.08;99490.41;5051426;28;20212;-61
2022/07/29 07:35:13;;;;;;;8.93;8.13;;;;;;;37.24;32.53;99505.31;5051807;28;20252;-61
2022/07/29 07:37:41;;;;;;;8.18;7.65;;;;;;;37.49;32.04;99510.75;5051575;28;20771;-61
2022/07/29 07:40:12;;;;;;;11.35;8.50;;;;;;;37.79;32.16;99502.88;5051699;28;20657;-61
2022/07/29 07:42:39;;;;;;;9.20;8.60;;;;;;;38.08;32.07;99502.25;5050666;28;20259;-61
2022/07/29 07:45:08;;;;;;;11.23;9.88;;;;;;;38.53;31.13;99501.19;5050984;28;20230;-61
2022/07/29 07:47:36;;;;;;;8.95;8.15;;;;;;;39.10;29.79;99499.91;5051402;28;20293;-61
2022/07/29 07:50:03;;;;;;;11.18;8.75;;;;;;;39.78;28.97;99513.13;5051422;28;20621;-61
2022/07/29 07:52:30;;;;;;;8.45;7.82;;;;;;;40.29;28.49;99509.00;5051381;28;20726;-61
2022/07/29 07:54:57;;;;;;;7.80;7.07;;;;;;;40.40;27.28;99513.59;5051427;28;20220;-61
2022/07/29 07:57:26;;;;;;;7.25;6.38;;;;;;;40.98;27.11;99510.75;5051110;28;20224;-61
2022/07/29 07:59:52;;;;;;;9.93;5.57;;;;;;;41.06;25.91;99504.13;5050551;28;20227;-61
2022/07/29 08:02:19;;;;;;;11.65;5.43;;;;;;;40.91;25.63;99510.06;5050908;28;20234;-61
2022/07/29 08:04:46;;;;;;;5.95;5.28;;;;;;;40.96;25.06;99486.53;5051284;28;20712;-61
2022/07/29 08:07:14;;;;;;;5.95;4.35;;;;;;;40.79;24.58;99503.84;5051000;28;20251;-61
2022/07/29 08:09:41;;;;;;;4.88;4.57;;;;;;;41.20;24.47;99505.53;5051085;28;20755;-61
2022/07/29 08:12:08;;;;;;;6.35;4.82;;;;;;;41.07;24.79;99500.31;5050896;28;20303;-61
2022/07/29 08:14:37;;;;;;;4.90;4.50;;;;;;;40.84;24.87;99507.50;5049882;28;20603;-62
2022/07/29 08:17:04;;;;;;;4.70;4.30;;;;;;;40.86;24.37;99510.78;5051085;28;20624;-61
2022/07/29 08:19:31;;;;;;;5.15;4.75;;;;;;;40.91;24.05;99519.06;5050731;28;20242;-61
2022/07/29 08:21:58;;;;;;;5.38;4.10;;;;;;;40.74;24.14;99504.56;5050404;28;20390;-61
2022/07/29 08:27:09;;;;;;;4.53;4.32;;;;;;;40.90;23.83;99509.25;5051510;28;20275;-60
2022/07/29 08:29:37;;;;;;;4.53;4.22;;;;;;;40.59;24.67;99504.22;5051763;28;20561;-61
2022/07/29 08:32:05;;;;;;;4.80;4.40;;;;;;;40.30;24.65;99486.97;5051032;28;20243;-60
2022/07/29 08:34:33;;;;;;;4.15;3.85;;;;;;;39.65;23.97;99495.16;5051306;28;20192;-60
2022/07/29 08:37:00;;;;;;;4.50;3.90;;;;;;;39.31;25.39;99488.53;5050672;28;20199;-60
2022/07/29 08:39:27;;;;;;;4.40;4.20;;;;;;;39.25;25.77;99488.63;5049213;28;20736;-60
2022/07/29 08:41:54;;;;;;;4.38;3.72;;;;;;;39.00;25.11;99484.16;5046983;28;20668;-63
2022/07/29 08:44:22;;;;;;;3.92;3.50;;;;;;;38.59;24.17;99487.56;5037898;28;20778;-59
2022/07/29 08:46:50;;;;;;;3.85;3.35;;;;;;;37.98;25.18;99482.91;5029351;28;20200;-59
2022/07/29 08:49:18;;;;;;;3.92;3.72;;;;;;;37.35;25.42;99485.66;5029477;28;20583;-59
2022/07/29 08:51:45;;;;;;;4.20;3.88;;;;;;;37.04;25.79;99481.00;5029775;28;20719;-60
2022/07/29 08:54:17;;;;;;;5.13;4.35;;;;;;;36.89;26.52;99471.53;5029711;28;20236;-60
2022/07/29 08:56:44;;;;;;;4.03;3.72;;;;;;;36.95;26.75;99470.66;5030666;28;20201;-59
2022/07/29 08:59:12;;;;;;;4.20;4.00;;;;;;;36.92;26.52;99465.66;5030768;28;20276;-59
2022/07/29 09:01:40;;;;;;;4.93;4.53;;;;;;;37.20;26.63;99459.94;5036941;28;20212;-59
2022/07/29 09:04:12;;;;;;;4.43;4.00;;;;;;;37.49;26.33;99464.72;5067287;28;20278;-59
2022/07/29 09:06:44;;;;;;;4.57;4.28;;;;;;;37.57;26.39;99450.94;5070344;28;20207;-59
2022/07/29 09:09:13;;;;;;;4.28;3.95;;;;;;;37.68;25.74;99462.97;5070640;28;20202;-60
2022/07/29 09:11:41;;;;;;;4.43;4.03;;;;;;;37.36;26.02;99471.06;5070231;28;20290;-60
2022/07/29 09:14:08;;;;;;;4.05;3.85;;;;;;;37.49;25.72;99453.06;5070251;28;20742;-61
2022/07/29 09:16:50;;;;;;;5.07;4.68;;;;;;;36.57;27.01;99449.75;5070459;28;20195;-59
2022/07/29 09:19:29;;;;;;;4.97;4.65;;;;;;;36.67;27.21;99458.28;5070526;28;20199;-59
2022/07/29 09:22:01;;;;;;;5.43;5.03;;;;;;;37.14;26.95;99442.63;5070232;28;20222;-60
2022/07/29 09:24:45;;;;;;;4.82;4.32;;;;;;;37.16;26.54;99448.69;5070164;28;20199;-60
2022/07/29 09:27:21;;;;;;;4.45;3.80;;;;;;;37.14;26.32;99429.09;5069970;28;20203;-61
2022/07/29 09:29:55;;;;;;;8.38;4.30;;;;;;;37.56;26.27;99443.84;5064335;28;20616;-61
2022/07/29 09:32:22;;;;;;;5.38;4.30;;;;;;;38.00;25.99;99432.03;5049749;28;20201;-61
2022/07/29 09:34:51;;;;;;;4.90;4.40;;;;;;;37.99;25.54;99433.09;5054671;28;20217;-62
2022/07/29 09:37:27;;;;;;;7.10;4.60;;;;;;;37.43;26.14;99435.84;5029851;28;20201;-61
2022/07/29 09:39:54;;;;;;;4.10;3.90;;;;;;;37.65;25.73;99430.91;5029954;28;20214;-61
2022/07/29 09:42:29;;;;;;;4.45;4.13;;;;;;;37.83;25.19;99433.63;5056353;28;20253;-61
2022/07/29 09:44:56;;;;;;;4.13;3.83;;;;;;;37.42;25.75;99429.59;5069983;28;20198;-61
2022/07/29 09:47:25;;;;;;;3.97;3.55;;;;;;;37.41;25.76;99421.69;5069861;28;20195;-60
2022/07/29 09:49:57;;;;;;;5.60;4.10;;;;;;;37.71;25.99;99427.28;5069923;28;20200;-61
2022/07/29 09:52:24;;;;;;;4.72;4.22;;;;;;;37.84;25.59;99429.88;5069907;28;20655;-60
2022/07/29 09:54:53;;;;;;;4.35;4.00;;;;;;;37.96;25.30;99428.09;5069594;28;20249;-60
2022/07/29 09:57:28;;;;;;;4.30;4.00;;;;;;;38.00;24.77;99421.19;5049788;28;20279;-62
2022/07/29 09:59:59;;;;;;;4.40;4.00;;;;;;;38.14;24.22;99419.22;5049457;28;20188;-61
2022/07/29 10:02:31;;;;;;;4.00;3.80;;;;;;;37.75;24.61;99413.09;5049720;28;20254;-61
2022/07/29 10:05:00;;;;;;;3.70;3.50;;;;;;;37.33;24.76;99411.97;5057128;28;20561;-60
2022/07/29 10:07:43;;;;;;;4.32;3.85;;;;;;;36.87;25.53;99414.09;5069512;28;20202;-60
2022/07/29 10:10:11;;;;;;;4.93;3.58;;;;;;;36.95;25.55;99421.94;5068899;28;20200;-60
2022/07/29 10:12:50;;;;;;;4.15;3.80;;;;;;;36.55;26.19;99415.88;5068654;28;20196;-60
2022/07/29 10:15:19;;;;;;;4.53;4.30;;;;;;;36.80;25.77;99410.59;5068506;28;20282;-60
2022/07/29 10:17:46;;;;;;;3.72;3.45;;;;;;;36.60;25.11;99414.19;5068571;28;20204;-60
2022/07/29 10:20:14;;;;;;;3.60;3.40;;;;;;;36.30;25.52;99413.06;5068724;28;20199;-60
2022/07/29 10:22:43;;;;;;;3.80;3.50;;;;;;;36.27;25.76;99402.66;5068568;28;20206;-61
2022/07/29 10:25:11;;;;;;;4.45;4.25;;;;;;;36.21;26.24;99406.19;5068714;28;20334;-60
2022/07/29 10:27:38;;;;;;;4.18;3.97;;;;;;;36.37;26.12;99408.44;5068652;28;20196;-62
2022/07/29 10:30:07;;;;;;;4.30;4.00;;;;;;;36.16;26.49;99398.72;5068670;28;20196;-60
2022/07/29 10:32:55;;;;;;;4.97;4.57;;;;;;;35.49;27.87;99401.66;5068528;28;20224;-60
2022/07/29 10:35:38;;;;;;;4.10;3.80;;;;;;;35.35;27.65;99398.13;5068735;28;20649;-60
2022/07/29 10:38:35;;;;;;;4.15;3.95;;;;;;;35.13;27.99;99386.66;5068301;28;20199;-60
2022/07/29 10:41:28;;;;;;;4.93;4.40;;;;;;;34.89;28.42;99387.22;5068356;28;20219;-61
2022/07/29 10:43:59;;;;;;;5.38;4.72;;;;;;;34.85;29.08;99370.66;5068700;28;20200;-61
2022/07/29 10:46:27;;;;;;;4.50;4.22;;;;;;;34.70;29.14;99350.22;5068547;28;20697;-61
2022/07/29 10:49:15;;;;;;;4.63;4.40;;;;;;;34.56;29.63;99371.75;5068513;28;20204;-60
2022/07/29 10:52:07;;;;;;;4.60;4.20;;;;;;;34.42;29.71;99361.16;5066902;28;20223;-60
2022/07/29 10:54:46;;;;;;;4.25;3.95;;;;;;;34.48;29.79;99353.06;5068396;28;20234;-60
2022/07/29 10:57:20;;;;;;;7.38;4.65;;;;;;;34.50;30.13;99342.09;5068133;28;20214;-61
2022/07/29 10:59:48;;;;;;;6.90;4.38;;;;;;;34.53;29.39;99350.63;5059679;28;20204;-60
2022/07/29 11:02:51;;;;;;;4.03;3.83;;;;;;;34.48;30.18;99346.84;5058557;28;20222;-61
2022/07/29 11:05:20;;;;;;;4.65;4.38;;;;;;;34.23;30.39;99343.81;5058313;28;20192;-61
2022/07/29 11:08:30;;;;;;;7.18;4.22;;;;;;;34.14;30.60;99342.31;5057766;28;20614;-61
2022/07/29 11:11:38;;;;;;;4.50;4.10;;;;;;;34.11;30.25;99334.63;5058354;28;20257;-61
2022/07/29 11:14:05;;;;;;;4.72;3.95;;;;;;;34.04;30.80;99337.31;5051132;28;20243;-60
2022/07/29 11:17:01;;;;;;;4.72;4.32;;;;;;;34.18;30.19;99330.97;5058362;28;20212;-60
2022/07/29 11:19:29;;;;;;;4.97;4.50;;;;;;;34.16;30.57;99322.25;5055756;28;20200;-61
2022/07/29 11:21:56;;;;;;;4.63;4.20;;;;;;;34.27;30.78;99328.94;5059920;28;20219;-61
2022/07/29 11:24:27;;;;;;;5.13;4.78;;;;;;;34.29;31.32;99326.88;5062025;28;20196;-61
2022/07/29 11:27:17;;;;;;;4.93;4.30;;;;;;;33.98;31.80;99321.09;5062059;28;20200;-61
2022/07/29 11:29:55;;;;;;;4.90;4.55;;;;;;;34.00;32.33;99324.41;5058483;28;20205;-60
2022/07/29 11:32:24;;;;;;;4.45;4.20;;;;;;;33.74;31.26;99304.38;5057886;28;20271;-60
2022/07/29 11:35:13;;;;;;;5.03;4.45;;;;;;;33.67;31.84;99308.88;5060697;28;20196;-60
2022/07/29 11:37:40;;;;;;;4.47;4.10;;;;;;;33.75;32.11;99322.22;5060976;28;20234;-60
2022/07/29 11:40:16;;;;;;;4.72;3.90;;;;;;;33.61;32.48;99306.16;5061826;28;20639;-60
2022/07/29 11:42:47;;;;;;;4.95;4.65;;;;;;;33.83;32.38;99305.09;5059329;28;20231;-61
2022/07/29 11:45:19;;;;;;;5.07;4.72;;;;;;;33.89;31.94;99306.97;5059996;28;20204;-61
2022/07/29 11:47:57;;;;;;;4.93;4.25;;;;;;;33.97;31.46;99303.31;5060492;28;20215;-61
2022/07/29 11:50:33;;;;;;;4.35;4.05;;;;;;;33.84;31.58;99283.34;5059791;28;20672;-60
2022/07/29 11:53:04;;;;;;;5.05;4.50;;;;;;;33.78;31.83;99286.00;5058262;28;20192;-62